createdAt,value
2022-12-06T00:01:25.514Z,99599.13
2022-12-06T00:05:26.922Z,99588.88
2022-12-06T00:09:29.414Z,99593.97
2022-12-06T00:13:30.710Z,99594.81
2022-12-06T00:17:31.954Z,99597.44
2022-12-06T00:21:34.722Z,99597.47
2022-12-06T00:25:36.019Z,99595.88
2022-12-06T00:29:37.323Z,99590.00
2022-12-06T00:33:38.706Z,99590.00
2022-12-06T00:37:40.082Z,99588.22
2022-12-06T00:41:41.906Z,99595.88
2022-12-06T00:45:44.035Z,99582.91
2022-12-06T00:49:45.387Z,99584.59
2022-12-06T00:53:47.448Z,99571.69
2022-12-06T00:57:48.966Z,99569.19
2022-12-06T01:01:50.319Z,99570.78
2022-12-06T01:05:52.063Z,99575.88
2022-12-06T01:09:53.376Z,99574.91
2022-12-06T01:13:55.441Z,99575.56
2022-12-06T01:17:56.674Z,99572.19
2022-12-06T01:21:58.347Z,99567.81
2022-12-06T01:25:59.622Z,99572.88
2022-12-06T01:30:01.199Z,99566.84
2022-12-06T01:34:02.855Z,99569.28
2022-12-06T01:38:06.267Z,99578.66
2022-12-06T01:42:09.609Z,99573.50
2022-12-06T01:46:29.850Z,99569.22
2022-12-06T01:50:32.775Z,99572.63
2022-12-06T01:54:34.779Z,99574.34
2022-12-06T01:58:39.222Z,99566.63
2022-12-06T02:02:40.908Z,99567.41
2022-12-06T02:06:43.061Z,99560.50
2022-12-06T02:10:44.428Z,99569.00
2022-12-06T02:14:47.708Z,99569.00
2022-12-06T02:18:58.361Z,99564.88
2022-12-06T02:23:18.156Z,99560.59
2022-12-06T02:27:34.793Z,99567.41
2022-12-06T02:31:36.014Z,99565.69
2022-12-06T02:35:42.816Z,99581.06
2022-12-06T02:39:49.983Z,99572.53
2022-12-06T02:43:55.005Z,99569.94
2022-12-06T02:47:57.934Z,99573.16
2022-12-06T02:51:59.280Z,99563.84
2022-12-06T02:56:00.595Z,99564.69
2022-12-06T03:00:02.270Z,99563.81
2022-12-06T03:04:11.164Z,99557.81
2022-12-06T03:08:19.005Z,99557.78
2022-12-06T03:12:29.887Z,99561.25
2022-12-06T03:16:34.826Z,99559.50
2022-12-06T03:20:42.645Z,99564.59
2022-12-06T03:24:44.467Z,99555.16
2022-12-06T03:28:47.020Z,99559.44
2022-12-06T03:32:49.406Z,99546.50
2022-12-06T03:36:51.750Z,99556.69
2022-12-06T03:40:55.131Z,99550.63
2022-12-06T03:44:56.872Z,99542.13
2022-12-06T03:49:04.334Z,99541.25
2022-12-06T03:53:06.178Z,99533.38
2022-12-06T03:57:07.995Z,99537.66
2022-12-06T04:01:09.555Z,99547.91
2022-12-06T04:05:10.931Z,99542.78
2022-12-06T04:09:30.963Z,99549.56
2022-12-06T04:13:32.823Z,99547.00
2022-12-06T04:17:52.833Z,99553.66
2022-12-06T04:22:12.870Z,99541.69
2022-12-06T04:26:15.506Z,99541.69
2022-12-06T04:30:35.611Z,99541.56
2022-12-06T04:34:55.430Z,99532.09
2022-12-06T04:38:56.908Z,99536.38
2022-12-06T04:43:16.929Z,99534.66
2022-12-06T04:47:18.362Z,99516.63
2022-12-06T04:51:20.084Z,99530.31
2022-12-06T04:55:21.355Z,99518.44
2022-12-06T04:59:22.754Z,99525.22
2022-12-06T05:03:24.486Z,99521.69
2022-12-06T05:07:25.863Z,99523.28
2022-12-06T05:11:27.186Z,99519.84
2022-12-06T05:15:29.463Z,99522.41
2022-12-06T05:19:31.736Z,99514.75
2022-12-06T05:23:33.660Z,99519.09
2022-12-06T05:27:36.223Z,99526.69
2022-12-06T05:31:37.797Z,99533.50
2022-12-06T05:35:39.226Z,99531.72
2022-12-06T05:39:40.505Z,99541.19
2022-12-06T05:43:41.811Z,99542.09
2022-12-06T05:47:43.095Z,99539.53
2022-12-06T05:51:44.802Z,99539.59
2022-12-06T05:55:46.263Z,99548.91
2022-12-06T05:59:47.966Z,99542.25
2022-12-06T06:03:49.200Z,99555.13
2022-12-06T06:07:50.681Z,99548.16
2022-12-06T06:11:51.951Z,99545.66
2022-12-06T06:15:53.244Z,99539.72
2022-12-06T06:19:54.478Z,99536.38
2022-12-06T06:23:56.810Z,99545.78
2022-12-06T06:27:58.492Z,99528.66
2022-12-06T06:31:59.950Z,99532.13
2022-12-06T06:36:01.288Z,99523.56
2022-12-06T06:40:03.065Z,99527.06
2022-12-06T06:44:04.610Z,99531.41
2022-12-06T06:48:06.304Z,99521.19
2022-12-06T06:52:07.566Z,99536.53
2022-12-06T06:56:08.902Z,99538.28
2022-12-06T07:00:12.524Z,99544.41
2022-12-06T07:04:14.192Z,99542.69
2022-12-06T07:08:15.566Z,99544.25
2022-12-06T07:12:17.122Z,99535.75
2022-12-06T07:16:18.744Z,99532.44
2022-12-06T07:20:20.191Z,99537.56
2022-12-06T07:24:21.511Z,99548.75
2022-12-06T07:28:23.007Z,99540.19
2022-12-06T07:32:24.358Z,99542.78
2022-12-06T07:36:26.345Z,99533.38
2022-12-06T07:40:56.024Z,99535.00
2022-12-06T07:45:02.630Z,99542.63
2022-12-06T07:49:06.812Z,99540.97
2022-12-06T07:53:09.258Z,99547.91
2022-12-06T07:57:15.852Z,99539.38
2022-12-06T08:01:21.343Z,99542.88
2022-12-06T08:05:28.815Z,99541.28
2022-12-06T08:09:30.926Z,99540.50
2022-12-06T08:13:37.755Z,99531.16
2022-12-06T08:17:41.243Z,99531.22
2022-12-06T08:21:42.974Z,99544.25
2022-12-06T08:25:48.198Z,99544.31
2022-12-06T08:29:50.940Z,99533.28
2022-12-06T08:33:57.695Z,99534.22
2022-12-06T08:38:00.037Z,99538.63
2022-12-06T08:42:06.798Z,99541.22
2022-12-06T08:46:11.229Z,99537.88
2022-12-06T08:50:13.826Z,99544.84
2022-12-06T08:54:20.402Z,99542.41
2022-12-06T08:58:35.025Z,99553.47
2022-12-06T09:02:42.106Z,99549.16
2022-12-06T09:06:45.467Z,99552.78
2022-12-06T09:10:49.982Z,99557.19
2022-12-06T09:14:54.559Z,99555.66
2022-12-06T09:18:59.869Z,99550.66
2022-12-06T09:23:22.209Z,99558.47
2022-12-06T09:27:24.979Z,99558.50
2022-12-06T09:31:28.286Z,99566.34
2022-12-06T09:35:30.246Z,99562.94
2022-12-06T09:39:34.343Z,99564.69
2022-12-06T09:43:59.103Z,99578.53
2022-12-06T09:48:18.949Z,99575.88
2022-12-06T09:52:40.752Z,99584.56
2022-12-06T09:56:46.126Z,99593.13
2022-12-06T10:01:03.331Z,99587.94
2022-12-06T10:05:25.202Z,99587.25
2022-12-06T10:09:37.226Z,99580.50
2022-12-06T10:13:59.743Z,99580.56
2022-12-06T10:18:37.369Z,99581.34
2022-12-06T10:22:59.803Z,99585.72
2022-12-06T10:27:11.340Z,99573.03
2022-12-06T10:31:24.640Z,99561.19
2022-12-06T10:35:49.981Z,99562.16
2022-12-06T10:40:09.130Z,99557.25
2022-12-06T10:44:15.027Z,99555.75
2022-12-06T10:48:33.101Z,99561.81
2022-12-06T10:52:45.488Z,99562.75
2022-12-06T10:56:51.787Z,99572.25
2022-12-06T11:01:00.594Z,99565.41
2022-12-06T11:05:06.968Z,99567.94
2022-12-06T11:09:27.255Z,99570.56
2022-12-06T11:13:48.691Z,99568.03
2022-12-06T11:22:41.384Z,99574.94
2022-12-06T11:26:42.966Z,99571.50
2022-12-06T11:30:45.295Z,99569.81
2022-12-06T11:34:54.835Z,99566.38
2022-12-06T11:38:58.275Z,99558.72
2022-12-06T11:43:03.126Z,99556.97
2022-12-06T11:47:08.120Z,99550.25
2022-12-06T11:51:24.174Z,99550.31
2022-12-06T11:55:30.698Z,99545.16
2022-12-06T11:59:50.205Z,99546.84
2022-12-06T12:03:54.312Z,99542.56
2022-12-06T12:08:02.440Z,99546.03
2022-12-06T12:12:05.722Z,99542.72
2022-12-06T12:16:13.243Z,99537.66
2022-12-06T12:20:44.567Z,99542.84
2022-12-06T12:25:17.493Z,99536.97
2022-12-06T12:29:13.866Z,99533.56
2022-12-06T12:33:18.884Z,99534.47
2022-12-06T12:37:21.788Z,99536.22
2022-12-06T12:41:26.040Z,99532.78
2022-12-06T12:45:28.317Z,99535.41
2022-12-06T12:49:31.584Z,99534.53
2022-12-06T12:53:37.428Z,99526.03
2022-12-06T12:57:39.280Z,99519.19
2022-12-06T13:01:47.251Z,99516.66
2022-12-06T13:09:58.931Z,99516.78
2022-12-06T13:14:07.670Z,99518.50
2022-12-06T13:18:18.460Z,99515.97
2022-12-06T13:22:26.708Z,99519.41
2022-12-06T13:26:34.430Z,99519.44
2022-12-06T13:30:36.929Z,99508.31
2022-12-06T13:34:57.070Z,99502.34
2022-12-06T13:38:58.488Z,99498.97
2022-12-06T13:43:07.451Z,99499.09
2022-12-06T13:47:27.750Z,99496.50
2022-12-06T13:51:38.820Z,99500.81
2022-12-06T13:56:10.847Z,99501.72
2022-12-06T14:00:35.589Z,99495.69
2022-12-06T14:04:42.120Z,99502.44
2022-12-06T14:09:05.269Z,99499.78
2022-12-06T14:13:07.093Z,99502.34
2022-12-06T14:17:26.711Z,99502.34
2022-12-06T14:21:38.146Z,99503.09
2022-12-06T14:25:41.356Z,99509.13
2022-12-06T14:29:48.980Z,99505.66
2022-12-06T14:33:52.713Z,99499.63
2022-12-06T14:37:59.302Z,99503.03
2022-12-06T14:42:20.810Z,99504.63
2022-12-06T14:46:23.877Z,99503.69
2022-12-06T14:50:28.304Z,99503.63
2022-12-06T14:54:32.590Z,99491.59
2022-12-06T14:58:36.319Z,99495.78
2022-12-06T15:02:39.855Z,99500.97
2022-12-06T15:11:11.742Z,99499.09
2022-12-06T15:15:32.275Z,99497.34
2022-12-06T15:19:35.242Z,99500.69
2022-12-06T15:23:41.287Z,99492.06
2022-12-06T15:27:42.911Z,99488.66
2022-12-06T15:31:47.595Z,99489.50
2022-12-06T15:35:50.632Z,99485.16
2022-12-06T15:39:54.831Z,99487.72
2022-12-06T15:43:58.790Z,99487.59
2022-12-06T15:48:00.449Z,99484.97
2022-12-06T15:52:01.701Z,99480.56
2022-12-06T15:56:03.155Z,99483.00
2022-12-06T16:00:05.060Z,99487.19
2022-12-06T16:04:08.227Z,99486.16
2022-12-06T16:08:09.568Z,99489.47
2022-12-06T16:12:13.957Z,99483.38
2022-12-06T16:16:16.565Z,99485.84
2022-12-06T16:20:35.861Z,99500.19
2022-12-06T16:24:39.555Z,99495.63
2022-12-06T16:28:43.969Z,99491.19
2022-12-06T16:32:48.392Z,99497.94
2022-12-06T16:36:55.839Z,99500.38
2022-12-06T16:41:02.182Z,99501.16
2022-12-06T16:45:06.923Z,99498.47
2022-12-06T16:49:44.781Z,99499.31
2022-12-06T16:53:40.424Z,99507.88
2022-12-06T16:57:42.958Z,99503.41
2022-12-06T17:01:54.389Z,99513.69
2022-12-06T17:05:57.541Z,99511.13
2022-12-06T17:09:59.234Z,99505.84
2022-12-06T17:14:01.106Z,99510.06
2022-12-06T17:18:02.576Z,99508.09
2022-12-06T17:22:21.082Z,99515.84
2022-12-06T17:26:24.498Z,99503.00
2022-12-06T17:34:55.858Z,99509.00
2022-12-06T17:39:04.852Z,99510.66
2022-12-06T17:43:12.594Z,99510.66
2022-12-06T17:47:17.259Z,99511.47
2022-12-06T17:51:18.560Z,99507.94
2022-12-06T17:55:19.860Z,99504.56
2022-12-06T17:59:30.756Z,99515.78
2022-12-06T18:03:34.883Z,99506.44
2022-12-06T18:07:36.525Z,99518.38
2022-12-06T18:11:38.158Z,99514.94
2022-12-06T18:15:40.858Z,99526.88
2022-12-06T18:19:43.635Z,99526.03
2022-12-06T18:24:19.293Z,99519.19
2022-12-06T18:28:07.248Z,99536.28
2022-12-06T18:32:09.820Z,99527.84
2022-12-06T18:36:14.606Z,99532.06
2022-12-06T18:40:18.939Z,99529.53
2022-12-06T18:44:22.046Z,99534.59
2022-12-06T18:48:27.141Z,99533.78
2022-12-06T18:52:29.816Z,99529.47
2022-12-06T18:56:35.064Z,99530.47
2022-12-06T19:00:41.100Z,99544.22
2022-12-06T19:04:43.518Z,99529.72
2022-12-06T19:08:46.431Z,99539.13
2022-12-06T19:12:50.387Z,99531.44
2022-12-06T19:16:55.044Z,99529.72
2022-12-06T19:21:03.053Z,99533.94
2022-12-06T19:25:04.552Z,99527.16
2022-12-06T19:29:06.678Z,99532.25
2022-12-06T19:33:10.306Z,99529.56
2022-12-06T19:37:14.027Z,99531.34
2022-12-06T19:41:16.872Z,99530.38
2022-12-06T19:45:18.483Z,99525.19
2022-12-06T19:49:22.502Z,99526.97
2022-12-06T19:53:24.763Z,99526.06
2022-12-06T19:57:27.555Z,99530.25
2022-12-06T20:01:32.008Z,99526.03
2022-12-06T20:05:36.446Z,99526.00
2022-12-06T20:09:39.741Z,99531.19
2022-12-06T20:13:41.032Z,99535.47
2022-12-06T20:17:43.738Z,99544.06
2022-12-06T20:21:45.985Z,99539.84
2022-12-06T20:25:49.010Z,99540.63
2022-12-06T20:29:53.476Z,99544.84
2022-12-06T20:33:56.054Z,99537.16
2022-12-06T20:37:57.439Z,99541.47
2022-12-06T20:41:59.403Z,99539.81
2022-12-06T20:46:14.538Z,99548.28
2022-12-06T20:50:17.913Z,99546.50
2022-12-06T20:54:20.607Z,99543.03
2022-12-06T20:58:23.656Z,99547.28
2022-12-06T21:02:27.100Z,99543.78
2022-12-06T21:06:29.559Z,99542.06
2022-12-06T21:10:31.635Z,99544.56
2022-12-06T21:14:33.348Z,99540.28
2022-12-06T21:18:35.762Z,99541.97
2022-12-06T21:22:39.590Z,99540.22
2022-12-06T21:26:41.151Z,99539.28
2022-12-06T21:30:43.195Z,99539.91
2022-12-06T21:34:46.674Z,99535.41
2022-12-06T21:38:48.740Z,99532.69
2022-12-06T21:42:49.954Z,99538.56
2022-12-06T21:46:53.593Z,99547.09
2022-12-06T21:51:05.450Z,99542.81
2022-12-06T21:55:08.955Z,99545.25
2022-12-06T21:59:17.965Z,99541.88
2022-12-06T22:03:23.164Z,99535.22
2022-12-06T22:07:26.488Z,99538.72
2022-12-06T22:11:29.941Z,99544.56
2022-12-06T22:15:32.943Z,99551.38
2022-12-06T22:19:35.443Z,99537.00
2022-12-06T22:23:44.266Z,99540.56
2022-12-06T22:27:45.772Z,99548.28
2022-12-06T22:31:47.820Z,99544.84
2022-12-06T22:35:53.201Z,99551.75
2022-12-06T22:39:54.814Z,99558.50
2022-12-06T22:43:58.522Z,99562.03
2022-12-06T22:48:00.879Z,99556.13
2022-12-06T22:52:04.174Z,99558.66
2022-12-06T22:56:08.101Z,99562.03
2022-12-06T23:00:14.079Z,99561.22
2022-12-06T23:04:15.863Z,99555.16
2022-12-06T23:08:17.997Z,99554.34
2022-12-06T23:16:38.686Z,99542.28
2022-12-06T23:20:40.419Z,99540.56
2022-12-06T23:24:47.224Z,99542.22
2022-12-06T23:28:50.422Z,99550.03
2022-12-06T23:32:55.271Z,99547.56
2022-12-06T23:36:58.599Z,99549.22
2022-12-06T23:41:08.766Z,99550.03
2022-12-06T23:45:12.007Z,99544.91
2022-12-06T23:49:19.661Z,99539.78
2022-12-06T23:53:20.955Z,99539.81
2022-12-06T23:57:22.966Z,99537.25
